Time;durP1;ratioP1;P1;durP2;ratioP2;P2;SDS_P1;SDS_P2;PMS_P1;PMS_P2;Temp;Humidity;BMP_temperature;BMP_pressure;BME280_temperature;BME280_humidity;BME280_pressure;Samples;Min_cycle;Max_cycle;Signal;HPM_P1;HPM_P2
2022/06/22 00:01:13;;;;;;;25.85;6.03;;;;;;;27.09;53.22;98150.84;4954912;29;20051;-48
2022/06/22 00:03:41;;;;;;;27.20;7.65;;;;;;;26.88;56.28;98145.38;4956130;29;20058;-49
2022/06/22 00:06:22;;;;;;;19.20;6.78;;;;;;;26.57;57.87;98150.16;4954713;29;20563;-48
2022/06/22 00:08:52;;;;;;;18.38;6.93;;;;;;;26.17;59.70;98161.88;4954812;29;20035;-48
2022/06/22 00:11:18;;;;;;;29.60;8.73;;;;;;;25.83;61.26;98168.78;4956034;28;20023;-49
2022/06/22 00:13:55;;;;;;;31.13;13.45;;;;;;;25.36;63.88;98165.81;4955936;28;20466;-49
2022/06/22 00:16:36;;;;;;;34.67;14.55;;;;;;;24.89;65.60;98163.50;4956002;28;20023;-49
2022/06/22 00:19:16;;;;;;;26.08;8.68;;;;;;;24.44;67.33;98151.97;4955943;28;20026;-49
2022/06/22 00:21:42;;;;;;;22.38;9.40;;;;;;;24.09;68.72;98149.00;4954726;29;20035;-49
2022/06/22 00:24:23;;;;;;;35.70;11.50;;;;;;;23.72;71.52;98140.09;4954380;29;20027;-49
2022/06/22 00:27:11;;;;;;;40.65;19.23;;;;;;;23.22;74.14;98127.44;4955569;28;20047;-49
2022/06/22 00:29:38;;;;;;;57.03;40.13;;;;;;;22.86;75.43;98146.00;4945406;29;20129;-50
2022/06/22 00:32:28;;;;;;;30.23;16.17;;;;;;;22.80;76.89;98139.13;4955596;28;20024;-50
2022/06/22 00:34:54;;;;;;;27.42;11.88;;;;;;;22.84;77.02;98161.53;4955698;28;20047;-49
2022/06/22 00:37:31;;;;;;;26.17;14.98;;;;;;;23.07;78.43;98162.53;4955546;29;20108;-48
2022/06/22 00:40:01;;;;;;;33.80;17.55;;;;;;;23.32;78.45;98151.34;4954190;29;20038;-47
2022/06/22 00:42:38;;;;;;;30.42;13.50;;;;;;;23.46;76.97;98147.88;4955503;28;20065;-47
2022/06/22 00:45:22;;;;;;;42.60;21.17;;;;;;;23.58;77.28;98144.69;4954064;29;20028;-47
2022/06/22 00:48:07;;;;;;;32.22;12.98;;;;;;;23.56;75.29;98147.66;4954158;29;20501;-47
2022/06/22 00:50:43;;;;;;;33.63;13.38;;;;;;;23.70;76.55;98153.00;4954035;29;20496;-47
2022/06/22 00:53:20;;;;;;;31.75;11.07;;;;;;;24.08;76.70;98155.47;4954021;29;20035;-47
2022/06/22 00:55:55;;;;;;;27.33;10.30;;;;;;;24.33;75.45;98149.53;4955271;28;20313;-47
2022/06/22 00:58:32;;;;;;;44.83;22.58;;;;;;;24.54;75.79;98141.03;4955272;28;20027;-47
2022/06/22 01:01:19;;;;;;;37.70;19.77;;;;;;;24.95;75.19;98131.97;4953833;29;20039;-47
2022/06/22 01:03:54;;;;;;;26.73;12.55;;;;;;;24.89;74.83;98142.03;4955219;28;20027;-47
2022/06/22 01:06:25;;;;;;;47.13;18.13;;;;;;;24.76;75.13;98134.84;4953677;29;20118;-46
2022/06/22 01:08:53;;;;;;;28.80;13.88;;;;;;;24.58;74.54;98149.25;4955084;28;20050;-47
2022/06/22 01:14:41;;;;;;;26.90;8.35;;;;;;;24.03;74.18;98118.84;4954970;29;20572;-49
2022/06/22 01:17:17;;;;;;;27.75;9.20;;;;;;;23.75;74.70;98125.34;4953522;29;20039;-48
2022/06/22 01:20:09;;;;;;;39.70;33.50;;;;;;;23.42;74.90;98139.66;4953475;29;20497;-49
2022/06/22 01:22:42;;;;;;;26.63;8.95;;;;;;;23.48;77.17;98143.00;4954782;28;20544;-48
2022/06/22 01:25:45;;;;;;;24.30;7.85;;;;;;;23.69;75.86;98141.50;4954375;28;20023;-50
2022/06/22 01:28:13;;;;;;;25.45;7.68;;;;;;;23.81;76.18;98143.72;4954629;29;20042;-48
2022/06/22 01:30:49;;;;;;;23.15;7.85;;;;;;;23.97;75.56;98144.19;4954545;28;20019;-48
2022/06/22 01:33:34;;;;;;;30.98;7.53;;;;;;;24.11;73.64;98152.97;4954557;28;20035;-49
2022/06/22 01:36:08;;;;;;;26.83;10.10;;;;;;;23.92;74.39;98118.28;4954554;28;20034;-48
2022/06/22 01:38:38;;;;;;;30.52;9.20;;;;;;;23.57;75.76;98116.34;4953098;29;20520;-49
2022/06/22 01:41:27;;;;;;;26.83;8.70;;;;;;;23.31;76.69;98092.75;4953033;29;20031;-49
2022/06/22 01:44:14;;;;;;;23.15;8.80;;;;;;;23.28;76.27;98093.31;4954343;28;20031;-49
2022/06/22 01:47:17;;;;;;;15.82;6.90;;;;;;;23.24;75.03;98121.78;4953019;29;20517;-49
2022/06/22 01:50:36;;;;;;;25.25;10.25;;;;;;;22.98;76.59;98150.88;4952913;29;20028;-49
2022/06/22 01:53:06;;;;;;;23.60;8.35;;;;;;;22.71;75.98;98131.78;4894966;29;20036;-49
2022/06/22 01:55:37;;;;;;;20.17;7.75;;;;;;;22.59;77.50;98125.31;4894970;29;20033;-48
2022/06/22 01:58:14;;;;;;;29.63;11.57;;;;;;;22.50;78.40;98120.63;4879310;29;20434;-49
2022/06/22 02:00:44;;;;;;;38.80;13.13;;;;;;;22.24;80.42;98135.50;4895331;29;20061;-54
2022/06/22 02:03:19;;;;;;;29.25;12.10;;;;;;;21.96;82.03;98142.53;4896676;29;20140;-50
2022/06/22 02:06:02;;;;;;;32.60;11.93;;;;;;;21.81;82.69;98156.88;4894873;29;20624;-49
2022/06/22 02:08:39;;;;;;;28.88;11.13;;;;;;;21.67;82.97;98154.09;4894726;29;20085;-50
2022/06/22 02:11:11;;;;;;;23.85;10.90;;;;;;;21.61;83.22;98131.22;4879079;29;20052;-49
2022/06/22 02:13:56;;;;;;;31.60;14.13;;;;;;;21.72;85.23;98124.69;4894849;29;20443;-49
2022/06/22 02:16:25;;;;;;;35.72;19.23;;;;;;;21.76;85.75;98146.28;4879093;29;20063;-50
2022/06/22 02:18:56;;;;;;;37.10;18.23;;;;;;;21.81;86.49;98144.34;4879030;29;20135;-50
2022/06/22 02:21:24;;;;;;;35.15;17.50;;;;;;;21.97;87.41;98136.88;4894406;29;20032;-49
2022/06/22 02:24:08;;;;;;;35.08;16.85;;;;;;;22.07;87.48;98135.97;4925319;29;20453;-50
2022/06/22 02:26:39;;;;;;;35.67;24.50;;;;;;;22.35;88.65;98131.56;4953608;28;20137;-50
2022/06/22 02:29:08;;;;;;;31.17;16.48;;;;;;;22.46;87.89;98113.50;4953792;28;20023;-49
2022/06/22 02:31:34;;;;;;;40.42;16.42;;;;;;;22.31;86.79;98088.56;4953711;28;20337;-50
2022/06/22 02:34:01;;;;;;;33.72;15.38;;;;;;;22.06;86.58;98084.41;4952424;29;20031;-51
2022/06/22 02:36:32;;;;;;;32.38;18.30;;;;;;;21.84;87.76;98084.97;4953630;28;20027;-50
2022/06/22 02:39:01;;;;;;;56.33;34.47;;;;;;;21.78;88.07;98098.69;4953705;28;20038;-49
2022/06/22 02:44:32;;;;;;;30.33;20.70;;;;;;;21.66;88.39;98107.13;4953584;29;20078;-50
2022/06/22 02:47:18;;;;;;;56.17;43.00;;;;;;;21.57;88.58;98100.84;4952386;29;20504;-50
2022/06/22 02:49:58;;;;;;;34.35;16.98;;;;;;;21.58;89.11;98110.44;4952285;29;20063;-50
2022/06/22 02:52:35;;;;;;;44.10;37.30;;;;;;;21.99;90.47;98097.31;4953534;28;20052;-49
2022/06/22 02:55:01;;;;;;;18.58;11.02;;;;;;;22.38;89.43;98103.47;4952290;29;20476;-49
2022/06/22 02:57:48;;;;;;;26.40;9.65;;;;;;;22.36;86.53;98100.31;4953486;28;20520;-50
2022/06/22 03:00:17;;;;;;;40.25;25.10;;;;;;;22.39;86.68;98113.84;4952149;29;20584;-50
2022/06/22 03:02:44;;;;;;;22.75;10.75;;;;;;;22.39;85.41;98111.19;4953488;28;20031;-49
2022/06/22 03:05:12;;;;;;;23.60;11.02;;;;;;;22.29;84.82;98119.38;4952044;29;20031;-50
2022/06/22 03:07:42;;;;;;;27.90;12.75;;;;;;;22.16;85.26;98117.41;4953378;28;20089;-50
2022/06/22 03:10:35;;;;;;;24.92;13.40;;;;;;;22.16;86.26;98117.41;4953348;28;20081;-49
2022/06/22 03:13:01;;;;;;;52.53;22.50;;;;;;;22.14;86.93;98121.16;4942994;29;20046;-49
2022/06/22 03:15:32;;;;;;;33.40;18.33;;;;;;;22.14;87.23;98109.69;4952029;29;20390;-49
2022/06/22 03:18:00;;;;;;;30.50;17.02;;;;;;;22.11;87.59;98112.91;4952134;29;20464;-49
2022/06/22 03:20:31;;;;;;;28.05;17.08;;;;;;;22.08;87.71;98102.81;4951958;29;20027;-48
2022/06/22 03:23:14;;;;;;;38.00;16.95;;;;;;;22.12;88.44;98098.47;4953341;28;20042;-49
2022/06/22 03:25:47;;;;;;;41.20;27.15;;;;;;;22.23;88.58;98104.47;4951609;29;20481;-48
2022/06/22 03:28:18;;;;;;;34.78;18.98;;;;;;;22.27;88.82;98113.50;4953167;28;20040;-49
2022/06/22 03:31:14;;;;;;;37.50;20.08;;;;;;;22.31;88.80;98109.19;4951978;29;20244;-48
2022/06/22 03:33:49;;;;;;;71.43;59.15;;;;;;;22.59;90.49;98114.63;4945503;28;20039;-48
2022/06/22 03:36:21;;;;;;;39.85;28.30;;;;;;;23.02;90.91;98125.13;4956656;28;20039;-48
2022/06/22 03:38:55;;;;;;;49.20;40.42;;;;;;;23.05;89.89;98136.03;4956637;28;20106;-48
2022/06/22 03:41:26;;;;;;;37.57;22.13;;;;;;;22.93;89.09;98135.69;4956618;28;20031;-48
2022/06/22 03:43:55;;;;;;;36.28;17.17;;;;;;;22.90;89.68;98137.09;4956621;28;20255;-48
2022/06/22 03:46:46;;;;;;;51.72;32.47;;;;;;;22.86;89.77;98130.75;4955121;29;20027;-48
2022/06/22 03:49:18;;;;;;;78.80;58.88;;;;;;;22.83;90.41;98122.50;4956483;28;20042;-48
2022/06/22 03:51:57;;;;;;;36.38;21.70;;;;;;;23.07;91.25;98119.69;4955082;29;20078;-48
2022/06/22 03:54:25;;;;;;;37.33;15.23;;;;;;;23.29;91.79;98105.63;4956584;28;20035;-48
2022/06/22 03:56:56;;;;;;;43.72;16.38;;;;;;;23.13;90.49;98124.66;4956320;28;20027;-48
2022/06/22 03:59:22;;;;;;;39.63;16.30;;;;;;;22.77;89.37;98115.66;4955066;29;20110;-49
2022/06/22 04:01:48;;;;;;;54.13;28.83;;;;;;;22.56;90.15;98128.56;4954887;29;20135;-50
2022/06/22 04:04:14;;;;;;;39.28;16.55;;;;;;;22.50;90.82;98126.00;4954796;29;20118;-50
2022/06/22 04:06:52;;;;;;;34.95;17.48;;;;;;;22.61;92.31;98123.94;4956075;28;20023;-50
2022/06/22 04:09:26;;;;;;;40.13;20.65;;;;;;;22.48;91.45;98135.41;4956143;28;20105;-50
2022/06/22 04:12:01;;;;;;;37.60;21.25;;;;;;;22.80;94.14;98137.28;4956171;28;20031;-50
2022/06/22 04:15:05;;;;;;;38.10;18.25;;;;;;;23.02;94.10;98157.25;4954709;29;20409;-50
2022/06/22 04:17:42;;;;;;;36.83;20.17;;;;;;;22.49;91.34;98145.78;4953195;28;20378;-49
2022/06/22 04:20:52;;;;;;;34.15;21.27;;;;;;;22.42;92.99;98141.91;4955982;28;20024;-50
2022/06/22 04:23:44;;;;;;;39.63;24.80;;;;;;;22.28;92.36;98137.28;4930393;29;20043;-50
2022/06/22 04:26:25;;;;;;;30.27;18.85;;;;;;;22.14;91.76;98126.50;4954261;29;20493;-49
2022/06/22 04:29:07;;;;;;;29.35;20.50;;;;;;;22.02;91.89;98117.34;4954551;29;20490;-49
2022/06/22 04:31:38;;;;;;;41.65;21.02;;;;;;;21.99;92.29;98126.72;4957157;29;20518;-50
2022/06/22 04:34:18;;;;;;;23.85;12.60;;;;;;;21.80;90.93;98121.38;4954481;29;20035;-49
2022/06/22 04:36:53;;;;;;;25.27;16.10;;;;;;;21.67;90.71;98100.69;4955731;28;20031;-48
2022/06/22 04:39:23;;;;;;;;;;;;;;;21.63;90.47;98081.81;4956021;28;20031;-48
2022/06/22 04:41:50;;;;;;;23.35;13.55;;;;;;;21.74;91.05;98080.56;4954183;29;19957;-49
2022/06/22 04:44:22;;;;;;;15.05;7.65;;;;;;;21.80;87.54;98067.94;4954070;29;20054;-48
2022/06/22 04:46:53;;;;;;;28.15;11.77;;;;;;;21.89;88.61;98046.69;4955380;28;20114;-49
2022/06/22 04:49:26;;;;;;;18.33;9.02;;;;;;;22.03;88.60;98058.25;4955426;28;20035;-50
2022/06/22 04:52:21;;;;;;;25.70;13.32;;;;;;;21.99;86.76;98070.59;4954075;29;20035;-50
2022/06/22 04:54:51;;;;;;;14.85;10.85;;;;;;;22.02;86.39;98090.63;4954011;29;20027;-50
2022/06/22 04:57:20;;;;;;;11.85;6.53;;;;;;;21.82;84.95;98099.72;4955168;28;20513;-50
2022/06/22 04:59:47;;;;;;;10.20;5.75;;;;;;;21.64;84.97;98094.06;4955172;28;20106;-49
2022/06/22 05:02:15;;;;;;;18.08;4.95;;;;;;;21.48;83.95;98103.34;4953753;29;20126;-49
2022/06/22 05:04:51;;;;;;;16.05;4.57;;;;;;;21.25;83.18;98107.59;4953691;29;20114;-50
2022/06/22 05:07:33;;;;;;;14.02;4.10;;;;;;;20.97;83.00;98126.03;4955004;28;20039;-50
2022/06/22 05:10:10;;;;;;;9.05;2.80;;;;;;;20.75;82.52;98139.84;4955043;28;20031;-49
2022/06/22 05:13:02;;;;;;;14.63;3.10;;;;;;;20.54;83.31;98133.84;4954995;28;20027;-49
2022/06/22 05:15:37;;;;;;;12.13;3.42;;;;;;;20.39;83.86;98134.75;4953600;29;20027;-49
2022/06/22 05:18:09;;;;;;;9.88;3.78;;;;;;;20.35;84.10;98155.03;4953554;29;20034;-49
2022/06/22 05:20:45;;;;;;;15.07;4.07;;;;;;;20.27;84.73;98169.75;4954817;28;20401;-48
2022/06/22 05:23:12;;;;;;;20.45;4.80;;;;;;;20.20;85.32;98179.13;4954807;28;20113;-49
2022/06/22 05:25:41;;;;;;;18.30;4.65;;;;;;;20.12;86.04;98160.00;4954614;28;20059;-49
2022/06/22 05:28:16;;;;;;;16.83;4.80;;;;;;;20.08;86.34;98153.63;4954600;28;20029;-49
2022/06/22 05:30:48;;;;;;;20.10;5.85;;;;;;;20.06;87.40;98145.09;4953317;29;20126;-49
2022/06/22 05:33:20;;;;;;;17.52;5.32;;;;;;;20.17;88.56;98142.38;4954526;28;20524;-49
2022/06/22 05:36:04;;;;;;;20.75;9.63;;;;;;;20.26;89.22;98130.88;4953297;29;20563;-48
2022/06/22 05:38:32;;;;;;;23.05;12.80;;;;;;;20.49;89.92;98131.22;4954526;28;20034;-48
2022/06/22 05:41:04;;;;;;;21.27;11.15;;;;;;;20.82;90.60;98129.63;4954345;28;20027;-47
2022/06/22 05:43:32;;;;;;;25.52;15.80;;;;;;;20.86;89.58;98120.00;4954365;28;20031;-47
2022/06/22 05:46:02;;;;;;;30.45;16.77;;;;;;;20.89;89.16;98122.09;4952971;29;20493;-48
2022/06/22 05:48:33;;;;;;;37.85;32.42;;;;;;;21.14;89.47;98114.91;4954296;28;20070;-48
2022/06/22 05:51:11;;;;;;;22.33;11.18;;;;;;;21.46;89.52;98111.63;4954351;28;20032;-49
2022/06/22 05:53:45;;;;;;;26.92;6.25;;;;;;;21.86;89.69;98114.09;4952979;29;20035;-49
2022/06/22 05:56:16;;;;;;;31.00;11.93;;;;;;;22.45;89.76;98104.66;4954014;28;20038;-48
2022/06/22 05:58:49;;;;;;;16.55;7.07;;;;;;;22.84;87.85;98108.03;4952723;29;20066;-49
2022/06/22 06:02:06;;;;;;;46.97;42.17;;;;;;;22.80;85.51;98113.19;4954119;28;20031;-48
2022/06/22 06:04:47;;;;;;;26.88;17.15;;;;;;;22.78;84.75;98112.69;4894802;29;20040;-47
2022/06/22 06:07:33;;;;;;;19.42;8.70;;;;;;;22.53;83.40;98117.38;4894865;29;20109;-46
2022/06/22 06:10:02;;;;;;;10.30;5.40;;;;;;;22.43;83.91;98111.41;4894898;29;20403;-46
2022/06/22 06:12:34;;;;;;;18.15;11.82;;;;;;;22.51;83.03;98105.38;4879130;29;20028;-46
2022/06/22 06:15:04;;;;;;;28.40;9.40;;;;;;;22.59;81.14;98109.28;4894705;29;20076;-46
2022/06/22 06:17:35;;;;;;;16.33;4.75;;;;;;;22.67;80.37;98109.38;4894674;29;20152;-46
2022/06/22 06:20:04;;;;;;;17.80;6.25;;;;;;;22.84;80.23;98122.22;4894760;29;20076;-47
2022/06/22 06:22:31;;;;;;;17.05;5.90;;;;;;;22.91;79.45;98129.84;4894607;29;20529;-46
2022/06/22 06:27:54;;;;;;;13.10;4.63;;;;;;;22.70;78.00;98124.88;4894961;29;20051;-47
2022/06/22 06:30:42;;;;;;;14.13;4.13;;;;;;;22.68;78.62;98120.91;4894592;29;20418;-46
2022/06/22 06:33:19;;;;;;;18.05;8.15;;;;;;;22.71;78.52;98106.91;4894621;29;20048;-46
2022/06/22 06:35:53;;;;;;;16.35;5.18;;;;;;;22.97;79.23;98104.59;4894619;29;20111;-46
2022/06/22 06:38:35;;;;;;;14.50;5.68;;;;;;;23.55;79.10;98113.16;4878886;29;20041;-46
2022/06/22 06:41:11;;;;;;;27.05;9.63;;;;;;;24.04;79.23;98109.69;4942204;29;20517;-46
2022/06/22 06:43:59;;;;;;;93.68;28.10;;;;;;;25.40;78.26;98110.34;4953667;28;20042;-46
2022/06/22 06:46:49;;;;;;;119.18;16.17;;;;;;;26.15;77.02;98115.69;4953604;28;20026;-47
2022/06/22 06:49:33;;;;;;;147.98;12.73;;;;;;;26.21;75.81;98103.66;4953630;28;20421;-47
2022/06/22 06:52:20;;;;;;;141.85;12.52;;;;;;;26.47;75.19;98098.25;4953492;28;20450;-48
2022/06/22 06:55:05;;;;;;;107.93;12.55;;;;;;;26.40;75.75;98108.72;4952287;29;20035;-49
2022/06/22 06:57:32;;;;;;;118.20;9.05;;;;;;;26.39;75.23;98107.13;4953628;28;20034;-49
2022/06/22 07:00:04;;;;;;;30.80;5.82;;;;;;;26.25;74.83;98115.38;4953508;28;20082;-46
2022/06/22 07:02:33;;;;;;;22.15;5.55;;;;;;;26.16;74.83;98122.66;4952267;29;20086;-46
2022/06/22 07:05:01;;;;;;;70.80;8.25;;;;;;;26.21;74.74;98117.09;4953411;28;20091;-46
2022/06/22 07:07:37;;;;;;;48.13;10.57;;;;;;;26.42;73.85;98122.66;4953383;29;20082;-47
2022/06/22 07:10:29;;;;;;;48.85;9.43;;;;;;;26.85;73.09;98127.16;4954587;29;20043;-47
2022/06/22 07:13:26;;;;;;;29.17;7.07;;;;;;;27.38;71.69;98135.84;4956797;29;20043;-47
2022/06/22 07:16:00;;;;;;;20.88;13.07;;;;;;;27.35;69.17;98131.13;4924397;29;20044;-47
2022/06/22 07:18:34;;;;;;;21.75;8.88;;;;;;;28.12;66.97;98128.28;4957100;28;20023;-49
2022/06/22 07:21:40;;;;;;;17.52;5.40;;;;;;;30.17;64.83;98116.00;4955690;29;20031;-48
2022/06/22 07:24:40;;;;;;;13.10;4.47;;;;;;;31.56;61.02;98104.44;4948601;29;20059;-49
2022/06/22 07:27:15;;;;;;;23.10;11.57;;;;;;;32.76;53.52;98090.94;4956658;28;20047;-48
2022/06/22 07:29:47;;;;;;;27.85;14.80;;;;;;;32.76;51.90;98096.38;4956859;28;20078;-49
2022/06/22 07:32:15;;;;;;;14.88;7.03;;;;;;;32.75;51.83;98094.78;4956750;28;20031;-49
2022/06/22 07:34:52;;;;;;;20.52;5.82;;;;;;;33.38;50.38;98092.69;4956786;28;20110;-47
2022/06/22 07:37:26;;;;;;;26.95;8.55;;;;;;;33.85;49.74;98098.78;4955395;29;20031;-47
2022/06/22 07:40:08;;;;;;;;;;;;;;;34.10;55.92;98097.16;4955890;29;20034;-49
2022/06/22 07:42:34;;;;;;;32.88;9.10;;;;;;;34.35;49.96;98081.13;4956673;28;19922;-48
2022/06/22 07:45:00;;;;;;;15.18;4.70;;;;;;;34.35;46.21;98088.50;4956428;29;20023;-49
2022/06/22 07:47:33;;;;;;;25.33;6.03;;;;;;;34.35;45.10;98075.69;4955507;29;20028;-49
2022/06/22 07:50:12;;;;;;;13.30;4.40;;;;;;;35.67;39.73;98077.88;4956425;29;20019;-49
2022/06/22 07:52:52;;;;;;;24.02;7.20;;;;;;;35.69;39.30;98086.47;4956471;28;20038;-50
2022/06/22 07:55:57;;;;;;;21.20;4.88;;;;;;;36.21;39.93;98074.63;4956397;28;20027;-49
2022/06/22 07:58:29;;;;;;;;;;;;;;;34.93;41.56;98078.94;4956822;28;20042;-49
2022/06/22 08:00:59;;;;;;;20.83;7.05;;;;;;;33.61;42.01;98082.56;4956230;28;19918;-49
2022/06/22 08:03:43;;;;;;;13.68;5.35;;;;;;;34.28;40.09;98069.38;4955123;29;20031;-49
2022/06/22 08:06:17;;;;;;;21.88;5.32;;;;;;;34.49;40.41;98068.78;4954865;29;20405;-49
2022/06/22 08:08:59;;;;;;;28.70;18.70;;;;;;;35.19;39.21;98056.97;4956212;28;20035;-49
2022/06/22 08:11:34;;;;;;;28.17;7.15;;;;;;;35.66;38.94;98042.78;4954790;29;20089;-49
2022/06/22 08:14:14;;;;;;;21.05;6.15;;;;;;;35.27;36.23;98046.84;4956105;28;20056;-49
2022/06/22 08:17:00;;;;;;;22.33;8.73;;;;;;;33.82;38.30;98051.31;4956048;28;20047;-49
2022/06/22 08:19:28;;;;;;;19.98;5.45;;;;;;;32.56;40.95;98046.75;4955506;28;20062;-48
2022/06/22 08:21:59;;;;;;;24.63;5.63;;;;;;;32.09;42.94;98045.06;4955857;28;20020;-46
2022/06/22 08:24:28;;;;;;;19.13;5.97;;;;;;;31.47;42.43;98050.38;4956148;28;20027;-47
2022/06/22 08:26:55;;;;;;;23.27;5.75;;;;;;;31.38;42.38;98063.34;4954217;29;20051;-47
2022/06/22 08:29:25;;;;;;;22.08;5.82;;;;;;;32.06;42.09;98056.66;4954530;29;20029;-47
2022/06/22 08:32:18;;;;;;;21.20;4.60;;;;;;;33.10;40.76;98063.13;4955774;28;20054;-47
2022/06/22 08:34:53;;;;;;;19.40;5.10;;;;;;;34.22;38.61;98058.78;4954387;29;20090;-47
2022/06/22 08:37:39;;;;;;;20.33;5.53;;;;;;;34.58;37.26;98055.63;4954342;29;20125;-49
2022/06/22 08:40:20;;;;;;;22.90;6.55;;;;;;;33.87;37.38;98061.88;4954224;29;20114;-49
2022/06/22 08:43:03;;;;;;;24.20;5.57;;;;;;;33.42;39.04;98074.47;4955591;28;20053;-47
2022/06/22 08:45:44;;;;;;;20.88;4.90;;;;;;;33.66;39.50;98059.66;4955438;28;20028;-49
2022/06/22 08:48:16;;;;;;;20.88;4.97;;;;;;;34.12;39.24;98062.16;4955476;28;20091;-49
2022/06/22 08:50:57;;;;;;;18.48;5.43;;;;;;;34.79;38.71;98049.59;4954020;29;20027;-49
2022/06/22 08:53:35;;;;;;;26.50;5.32;;;;;;;34.99;37.43;98048.22;4955295;29;20535;-50
2022/06/22 08:56:16;;;;;;;20.08;5.30;;;;;;;35.71;35.07;98037.72;4955317;28;20042;-49
2022/06/22 08:58:53;;;;;;;16.70;5.53;;;;;;;36.51;34.45;98047.72;4954011;29;20534;-49
2022/06/22 09:01:31;;;;;;;25.50;5.22;;;;;;;37.36;31.66;98037.91;4955205;28;20155;-50
2022/06/22 09:04:31;;;;;;;17.10;4.57;;;;;;;38.66;30.65;98034.53;4953878;29;20035;-48
2022/06/22 09:07:09;;;;;;;18.45;5.30;;;;;;;38.99;28.44;98027.59;4955067;29;20027;-50
2022/06/22 09:10:09;;;;;;;23.63;5.30;;;;;;;39.30;30.39;98025.72;4953782;29;20122;-49
2022/06/22 09:12:38;;;;;;;22.75;5.95;;;;;;;39.74;26.72;98026.78;4954982;29;20489;-49
2022/06/22 09:15:28;;;;;;;27.52;6.35;;;;;;;39.78;27.93;98023.97;4954912;28;20035;-46
2022/06/22 09:18:21;;;;;;;21.05;6.13;;;;;;;40.20;26.84;98035.56;4954919;28;20045;-47
2022/06/22 09:21:29;;;;;;;26.73;6.03;;;;;;;39.77;26.86;98032.63;4954864;28;20023;-50
2022/06/22 09:24:22;;;;;;;23.90;5.75;;;;;;;39.48;27.23;98043.97;4954833;28;20019;-49
2022/06/22 09:27:13;;;;;;;21.40;5.60;;;;;;;39.71;28.12;98032.31;4954433;28;20043;-50
2022/06/22 09:30:02;;;;;;;25.15;5.82;;;;;;;39.60;25.48;98035.19;4953509;29;20043;-49
2022/06/22 09:32:52;;;;;;;21.55;4.88;;;;;;;38.99;25.23;98030.34;4952563;28;20039;-49
2022/06/22 09:35:57;;;;;;;20.92;5.60;;;;;;;38.40;26.90;98039.41;4954607;29;20028;-49
2022/06/22 09:38:28;;;;;;;26.98;6.28;;;;;;;37.98;26.65;98046.69;4954602;28;20382;-50
2022/06/22 09:41:15;;;;;;;24.02;5.70;;;;;;;37.71;28.33;98033.53;4953095;29;20426;-48
2022/06/22 09:43:56;;;;;;;24.85;5.40;;;;;;;38.03;27.79;98053.69;4954444;29;20031;-49
2022/06/22 09:46:24;;;;;;;34.10;6.25;;;;;;;37.92;27.20;98046.31;4954284;28;20028;-49
2022/06/22 09:49:23;;;;;;;26.23;6.43;;;;;;;37.84;25.46;98033.84;4954352;28;20039;-50
2022/06/22 09:52:15;;;;;;;32.58;5.60;;;;;;;37.79;27.05;98020.53;4954290;28;20023;-50
2022/06/22 09:57:57;;;;;;;28.73;6.55;;;;;;;36.17;28.35;98039.06;4954516;29;20041;-49
2022/06/22 10:00:44;;;;;;;27.65;5.28;;;;;;;36.20;29.04;98030.09;4954256;28;20234;-47
2022/06/22 10:03:29;;;;;;;33.00;6.93;;;;;;;36.89;28.02;98041.88;4952848;29;20081;-49
2022/06/22 10:06:14;;;;;;;26.98;5.85;;;;;;;36.30;27.28;98047.69;4953027;29;20039;-50
2022/06/22 10:09:18;;;;;;;32.08;7.07;;;;;;;36.48;28.13;98034.81;4954145;28;20035;-49
2022/06/22 10:12:01;;;;;;;37.45;6.10;;;;;;;36.92;28.29;98038.34;4954040;29;20086;-49
2022/06/22 10:14:55;;;;;;;27.15;6.15;;;;;;;37.04;28.13;98051.63;4954024;28;20444;-49
2022/06/22 10:18:02;;;;;;;33.58;6.00;;;;;;;37.30;27.99;98049.66;4953996;28;20514;-50
2022/06/22 10:21:24;;;;;;;29.63;6.45;;;;;;;37.75;27.97;98045.25;4953789;28;20154;-49
2022/06/22 10:24:20;;;;;;;27.30;7.03;;;;;;;37.76;27.38;98038.56;4894551;29;20495;-50
2022/06/22 10:27:11;;;;;;;44.78;18.10;;;;;;;38.33;27.55;98036.69;4894318;29;20467;-49
2022/06/22 10:29:40;;;;;;;39.42;10.73;;;;;;;39.32;26.29;98020.59;4894674;29;20036;-48
2022/06/22 10:32:35;;;;;;;32.47;11.98;;;;;;;40.15;26.04;98033.31;4894600;29;20060;-51
2022/06/22 10:35:24;;;;;;;29.95;7.32;;;;;;;40.46;25.17;98023.03;4894394;29;20040;-50
2022/06/22 10:38:22;;;;;;;32.42;7.05;;;;;;;40.64;24.74;98010.97;4894514;29;20539;-51
2022/06/22 10:47:36;;;;;;;35.55;7.47;;;;;;;38.40;25.56;97997.50;4861290;29;20579;-50
2022/06/22 10:50:25;;;;;;;25.08;6.18;;;;;;;38.04;24.88;98005.94;4824012;29;20572;-47
2022/06/22 10:53:09;;;;;;;27.25;6.57;;;;;;;38.36;26.78;98003.78;4823990;29;20046;-47
2022/06/22 10:56:08;;;;;;;35.75;8.27;;;;;;;38.64;26.29;97988.31;4842544;29;20029;-48
2022/06/22 10:58:55;;;;;;;27.75;7.60;;;;;;;38.08;25.67;97980.09;4842430;29;20042;-49
2022/06/22 11:01:27;;;;;;;28.05;6.45;;;;;;;37.73;26.11;97992.81;4842479;29;20070;-49
2022/06/22 11:04:27;;;;;;;29.20;5.85;;;;;;;37.47;25.83;97988.59;4842379;29;20513;-49
2022/06/22 11:07:22;;;;;;;29.35;7.22;;;;;;;37.17;25.39;97983.63;4842060;29;20191;-49
2022/06/22 11:10:03;;;;;;;32.20;7.60;;;;;;;36.88;26.54;97963.72;4842275;29;20042;-49
2022/06/22 11:12:40;;;;;;;29.58;6.78;;;;;;;36.93;27.67;97966.09;4842143;29;20057;-49
2022/06/22 11:15:33;;;;;;;36.42;7.00;;;;;;;37.13;28.00;97964.47;4842159;29;20037;-50
2022/06/22 11:18:07;;;;;;;21.70;5.43;;;;;;;37.13;27.44;97972.69;4842091;29;20077;-47
2022/06/22 11:21:30;;;;;;;26.88;6.45;;;;;;;37.38;28.11;97960.88;4842145;29;20045;-49
2022/06/22 11:24:40;;;;;;;33.03;6.88;;;;;;;37.89;28.91;97964.94;4826573;29;20042;-50
2022/06/22 11:30:51;;;;;;;26.73;5.78;;;;;;;38.70;24.97;97967.50;4916804;29;20435;-49
2022/06/22 11:34:08;;;;;;;27.70;5.85;;;;;;;37.57;25.94;97960.41;4916422;29;20087;-49
2022/06/22 11:36:36;;;;;;;28.05;5.85;;;;;;;37.05;26.73;97941.03;4881768;29;20590;-48
2022/06/22 11:39:13;;;;;;;23.88;6.82;;;;;;;36.77;27.67;97956.34;4881731;29;20048;-46
2022/06/22 11:42:16;;;;;;;19.35;5.53;;;;;;;36.75;27.02;97966.88;4897456;29;20079;-46
2022/06/22 11:48:02;;;;;;;32.92;7.82;;;;;;;36.27;27.95;97942.69;4897348;29;20097;-47
2022/06/22 11:50:49;;;;;;;22.67;5.43;;;;;;;36.30;28.06;97941.91;4897322;29;20510;-48
2022/06/22 11:53:32;;;;;;;24.45;5.28;;;;;;;36.10;26.52;97941.47;4881552;29;20052;-48
2022/06/22 11:56:12;;;;;;;27.63;5.38;;;;;;;36.03;27.73;97935.22;4899349;29;20459;-48
2022/06/22 11:59:06;;;;;;;27.20;6.13;;;;;;;35.96;27.36;97934.06;4916088;29;20123;-48
2022/06/22 12:01:47;;;;;;;26.55;6.95;;;;;;;35.53;28.22;97925.72;4910407;29;20047;-48
2022/06/22 12:04:34;;;;;;;32.95;6.70;;;;;;;35.28;28.05;97920.19;4900124;29;20040;-48
2022/06/22 12:07:11;;;;;;;32.25;6.57;;;;;;;34.52;27.87;97929.84;4915828;29;20582;-48
2022/06/22 12:09:46;;;;;;;30.45;6.45;;;;;;;33.88;30.52;97927.31;4904692;29;20111;-49
2022/06/22 12:12:46;;;;;;;35.00;7.20;;;;;;;33.67;30.70;97936.06;4956153;29;20029;-49
2022/06/22 12:15:17;;;;;;;24.02;5.10;;;;;;;33.31;30.90;97935.63;4956097;28;20035;-47
2022/06/22 12:18:13;;;;;;;29.48;7.15;;;;;;;32.86;31.66;97922.94;4956156;29;20123;-49
2022/06/22 12:20:50;;;;;;;49.53;22.88;;;;;;;32.57;32.85;97938.84;4954736;29;20175;-48
2022/06/22 12:23:43;;;;;;;40.22;8.07;;;;;;;32.28;33.42;97934.84;4955924;28;20062;-49
2022/06/22 12:26:38;;;;;;;34.20;6.53;;;;;;;31.99;33.27;97942.47;4955547;29;20051;-49
2022/06/22 12:29:37;;;;;;;29.90;6.72;;;;;;;31.53;34.67;97918.00;4955847;28;20482;-49
2022/06/22 12:32:14;;;;;;;38.88;7.00;;;;;;;31.36;35.91;97917.25;4954416;29;20037;-48
2022/06/22 12:35:00;;;;;;;34.03;6.55;;;;;;;31.22;34.54;97930.53;4954413;29;20031;-49
2022/06/22 12:37:35;;;;;;;32.35;6.47;;;;;;;30.99;36.56;97927.72;4955955;29;20027;-49
2022/06/22 12:40:11;;;;;;;32.72;6.70;;;;;;;30.84;36.32;97937.44;4954545;29;20027;-47
2022/06/22 12:42:37;;;;;;;32.75;6.40;;;;;;;30.64;36.54;97939.28;4955607;28;20071;-49
2022/06/22 12:45:24;;;;;;;40.83;7.15;;;;;;;30.44;37.36;97939.22;4955408;29;20035;-47